createdAt,value
2023-02-28T00:00:31.479Z,79.25
2023-02-28T00:01:34.763Z,79.21
2023-02-28T00:02:38.377Z,79.03
2023-02-28T00:03:40.437Z,78.85
2023-02-28T00:04:42.677Z,78.55
2023-02-28T00:05:44.565Z,78.80
2023-02-28T00:06:46.656Z,78.66
2023-02-28T00:07:50.740Z,78.13
2023-02-28T00:08:53.334Z,78.05
2023-02-28T00:09:55.826Z,78.20
2023-02-28T00:11:04.081Z,77.95
2023-02-28T00:12:06.276Z,77.74
2023-02-28T00:13:08.175Z,77.90
2023-02-28T00:14:10.213Z,77.85
2023-02-28T00:15:12.419Z,77.92
2023-02-28T00:16:19.037Z,78.12
2023-02-28T00:17:21.362Z,78.04
2023-02-28T00:18:23.623Z,78.11
2023-02-28T00:19:26.280Z,78.57
2023-02-28T00:20:28.374Z,78.24
2023-02-28T00:21:30.771Z,77.72
2023-02-28T00:22:32.971Z,77.60
2023-02-28T00:23:35.088Z,78.46
2023-02-28T00:24:37.444Z,78.34
2023-02-28T00:25:39.457Z,77.76
2023-02-28T00:26:41.565Z,77.80
2023-02-28T00:27:44.917Z,77.94
2023-02-28T00:28:46.878Z,77.48
2023-02-28T00:29:49.905Z,77.61
2023-02-28T00:30:52.210Z,77.27
2023-02-28T00:31:55.841Z,76.97
2023-02-28T00:32:59.238Z,76.99
2023-02-28T00:34:01.161Z,77.15
2023-02-28T00:35:04.888Z,77.15
2023-02-28T00:36:10.478Z,77.06
2023-02-28T00:37:13.509Z,77.66
2023-02-28T00:38:16.401Z,77.66
2023-02-28T00:39:18.631Z,78.07
2023-02-28T00:40:21.861Z,77.83
2023-02-28T00:41:23.749Z,77.60
2023-02-28T00:42:26.349Z,77.82
2023-02-28T00:43:28.306Z,77.27
2023-02-28T00:44:30.995Z,76.96
2023-02-28T00:45:33.350Z,77.24
2023-02-28T00:46:35.636Z,77.65
2023-02-28T00:47:37.733Z,77.66
2023-02-28T00:48:40.198Z,77.03
2023-02-28T00:49:43.086Z,77.15
2023-02-28T00:50:47.058Z,77.41
2023-02-28T00:51:49.963Z,77.48
2023-02-28T00:52:51.954Z,77.07
2023-02-28T00:53:53.883Z,77.25
2023-02-28T00:54:56.543Z,77.42
2023-02-28T00:55:58.872Z,78.28
2023-02-28T00:57:01.398Z,78.14
2023-02-28T00:58:03.427Z,78.21
2023-02-28T00:59:06.178Z,77.85
2023-02-28T01:00:10.545Z,78.11
2023-02-28T01:01:12.611Z,77.61
2023-02-28T01:02:15.127Z,77.31
2023-02-28T01:03:18.809Z,77.72
2023-02-28T01:04:21.280Z,78.37
2023-02-28T01:05:23.533Z,78.10
2023-02-28T01:06:25.827Z,77.89
2023-02-28T01:07:27.873Z,78.41
2023-02-28T01:08:30.057Z,78.44
2023-02-28T01:09:32.058Z,78.37
2023-02-28T01:10:34.447Z,77.93
2023-02-28T01:11:37.186Z,78.05
2023-02-28T01:12:39.176Z,77.71
2023-02-28T01:13:42.010Z,77.66
2023-02-28T01:14:43.913Z,77.95
2023-02-28T01:15:55.458Z,78.12
2023-02-28T01:16:57.635Z,77.70
2023-02-28T01:17:59.514Z,77.65
2023-02-28T01:19:01.401Z,77.58
2023-02-28T01:20:04.398Z,78.02
2023-02-28T01:21:09.602Z,78.21
2023-02-28T01:22:11.685Z,78.78
2023-02-28T01:23:13.617Z,78.15
2023-02-28T01:24:15.502Z,78.36
2023-02-28T01:25:17.698Z,78.13
2023-02-28T01:26:24.181Z,77.97
2023-02-28T01:27:26.137Z,78.09
2023-02-28T01:28:28.009Z,78.49
2023-02-28T01:29:30.807Z,78.01
2023-02-28T01:30:33.224Z,78.15
2023-02-28T01:31:35.476Z,78.18
2023-02-28T01:32:37.431Z,78.41
2023-02-28T01:33:40.654Z,78.23
2023-02-28T01:34:42.554Z,78.25
2023-02-28T01:35:44.505Z,78.20
2023-02-28T01:36:46.952Z,78.13
2023-02-28T01:37:48.995Z,78.70
2023-02-28T01:38:52.190Z,78.42
2023-02-28T01:39:54.337Z,78.21
2023-02-28T01:40:57.261Z,78.34
2023-02-28T01:41:59.159Z,78.64
2023-02-28T01:43:01.033Z,78.57
2023-02-28T01:44:09.714Z,78.37
2023-02-28T01:46:36.184Z,79.11
2023-02-28T01:47:42.155Z,78.64
2023-02-28T01:48:47.812Z,79.04
2023-02-28T01:49:51.266Z,79.30
2023-02-28T01:50:57.053Z,79.50
2023-02-28T01:51:59.301Z,79.45
2023-02-28T01:53:05.004Z,79.22
2023-02-28T01:54:10.661Z,78.80
2023-02-28T01:55:14.127Z,78.50
2023-02-28T01:56:20.036Z,79.35
2023-02-28T01:57:25.761Z,79.68
2023-02-28T01:58:27.888Z,79.08
2023-02-28T01:59:39.729Z,78.83
2023-02-28T02:00:42.089Z,79.58
2023-02-28T02:01:44.261Z,79.81
2023-02-28T02:02:50.137Z,79.11
2023-02-28T02:03:56.197Z,79.11
2023-02-28T02:05:05.394Z,79.07
2023-02-28T02:06:07.708Z,78.91
2023-02-28T02:07:11.103Z,79.27
2023-02-28T02:08:19.920Z,79.75
2023-02-28T02:09:21.958Z,79.74
2023-02-28T02:10:37.170Z,80.21
2023-02-28T02:11:42.831Z,80.50
2023-02-28T02:13:15.278Z,79.75
2023-02-28T02:14:29.435Z,79.50
2023-02-28T02:15:44.333Z,79.22
2023-02-28T02:17:05.542Z,79.66
2023-02-28T02:18:23.314Z,79.29
2023-02-28T02:19:28.987Z,79.50
2023-02-28T02:21:02.205Z,79.52
2023-02-28T02:22:16.593Z,79.70
2023-02-28T02:23:48.282Z,79.55
2023-02-28T02:25:06.239Z,79.71
2023-02-28T02:26:21.076Z,79.68
2023-02-28T02:27:46.473Z,79.86
2023-02-28T02:29:15.272Z,80.14
2023-02-28T02:30:26.669Z,80.69
2023-02-28T02:33:37.811Z,80.31
2023-02-28T02:36:05.002Z,79.99
2023-02-28T02:37:32.272Z,79.55
2023-02-28T02:38:42.184Z,79.46
2023-02-28T02:39:57.072Z,79.35
2023-02-28T02:41:05.695Z,79.73
2023-02-28T02:42:11.644Z,79.35
2023-02-28T02:43:23.376Z,79.44
2023-02-28T02:44:46.508Z,79.89
2023-02-28T02:45:52.208Z,79.93
2023-02-28T02:46:57.993Z,79.71
2023-02-28T02:48:03.990Z,80.23
2023-02-28T02:49:09.940Z,79.60
2023-02-28T02:50:17.038Z,79.75
2023-02-28T02:51:24.477Z,79.72
2023-02-28T02:52:30.149Z,79.85
2023-02-28T02:53:35.826Z,80.19
2023-02-28T02:54:41.317Z,80.29
2023-02-28T02:55:46.663Z,79.71
2023-02-28T02:56:50.948Z,79.10
2023-02-28T02:57:56.627Z,78.93
2023-02-28T02:59:02.443Z,79.02
2023-02-28T03:00:06.991Z,78.95
2023-02-28T03:01:12.732Z,78.54
2023-02-28T03:02:17.333Z,79.13
2023-02-28T03:03:20.251Z,78.75
2023-02-28T03:04:25.237Z,78.55
2023-02-28T03:05:30.944Z,79.19
2023-02-28T03:06:33.177Z,79.49
2023-02-28T03:07:35.310Z,79.54
2023-02-28T03:08:38.811Z,79.35
2023-02-28T03:09:51.276Z,79.50
2023-02-28T03:10:59.863Z,79.84
2023-02-28T03:12:03.918Z,79.96
2023-02-28T03:13:12.333Z,79.45
2023-02-28T03:14:20.760Z,79.27
2023-02-28T03:15:32.756Z,78.77
2023-02-28T03:16:44.451Z,79.70
2023-02-28T03:17:48.095Z,79.59
2023-02-28T03:18:59.577Z,79.71
2023-02-28T03:20:08.156Z,79.34
2023-02-28T03:21:16.749Z,79.87
2023-02-28T03:22:33.982Z,80.21
2023-02-28T03:24:09.515Z,79.99
2023-02-28T03:25:33.977Z,79.79
2023-02-28T03:26:39.758Z,79.89
2023-02-28T03:27:54.340Z,80.29
2023-02-28T03:29:12.043Z,80.11
2023-02-28T03:30:27.067Z,80.12
2023-02-28T03:31:41.952Z,79.93
2023-02-28T03:33:03.249Z,79.66
2023-02-28T03:34:08.939Z,80.05
2023-02-28T03:36:25.756Z,79.47
2023-02-28T03:37:31.389Z,79.17
2023-02-28T03:38:52.166Z,79.34
2023-02-28T03:39:57.845Z,79.35
2023-02-28T03:41:09.439Z,80.64
2023-02-28T03:42:13.098Z,80.51
2023-02-28T03:43:18.790Z,80.56
2023-02-28T03:44:36.508Z,80.51
2023-02-28T03:45:41.673Z,80.16
2023-02-28T03:46:50.492Z,79.67
2023-02-28T03:48:08.528Z,80.03
2023-02-28T03:50:38.193Z,80.23
2023-02-28T03:51:43.170Z,80.11
2023-02-28T03:52:48.846Z,80.04
2023-02-28T03:53:54.675Z,79.96
2023-02-28T03:55:00.499Z,79.96
2023-02-28T03:56:24.313Z,80.44
2023-02-28T03:57:30.021Z,80.31
2023-02-28T03:58:59.980Z,80.62
2023-02-28T04:00:09.217Z,80.45
2023-02-28T04:01:24.379Z,80.14
2023-02-28T04:02:27.976Z,79.89
2023-02-28T04:03:30.082Z,79.95
2023-02-28T04:04:32.195Z,80.47
2023-02-28T04:07:11.454Z,80.03
2023-02-28T04:08:13.361Z,80.11
2023-02-28T04:09:15.399Z,80.61
2023-02-28T04:10:18.314Z,80.11
2023-02-28T04:11:38.917Z,80.22
2023-02-28T04:12:40.878Z,80.55
2023-02-28T04:13:42.772Z,80.58
2023-02-28T04:14:44.822Z,80.82
2023-02-28T04:15:46.703Z,80.82
2023-02-28T04:16:49.323Z,80.70
2023-02-28T04:17:51.345Z,80.37
2023-02-28T04:18:53.356Z,80.37
2023-02-28T04:19:55.245Z,80.35
2023-02-28T04:21:02.512Z,80.28
2023-02-28T04:22:04.494Z,80.32
2023-02-28T04:23:07.600Z,80.33
2023-02-28T04:24:12.211Z,79.95
2023-02-28T04:25:14.383Z,79.80
2023-02-28T04:26:16.415Z,79.86
2023-02-28T04:27:19.401Z,79.53
2023-02-28T04:28:22.156Z,79.29
2023-02-28T04:29:30.558Z,79.08
2023-02-28T04:30:32.925Z,79.18
2023-02-28T04:31:34.828Z,79.40
2023-02-28T04:32:36.915Z,79.43
2023-02-28T04:33:38.881Z,80.06
2023-02-28T04:34:42.945Z,79.90
2023-02-28T04:35:44.981Z,79.80
2023-02-28T04:37:10.104Z,79.39
2023-02-28T04:37:57.252Z,79.10
2023-02-28T04:38:59.931Z,79.01
2023-02-28T04:40:02.424Z,79.37
2023-02-28T04:41:05.728Z,79.60
2023-02-28T04:42:08.157Z,79.83
2023-02-28T04:43:10.193Z,79.87
2023-02-28T04:44:12.691Z,79.54
2023-02-28T04:45:14.578Z,79.16
2023-02-28T04:46:16.770Z,79.34
2023-02-28T04:47:20.653Z,79.36
2023-02-28T04:48:24.383Z,79.51
2023-02-28T04:49:28.348Z,79.37
2023-02-28T04:50:30.602Z,79.56
2023-02-28T04:51:33.013Z,79.38
2023-02-28T04:52:34.902Z,79.05
2023-02-28T04:53:38.674Z,79.68
2023-02-28T04:54:40.634Z,79.04
2023-02-28T04:55:43.588Z,78.99
2023-02-28T04:56:47.082Z,79.07
2023-02-28T04:57:50.268Z,78.89
2023-02-28T04:58:53.266Z,78.77
2023-02-28T04:59:55.953Z,78.70
2023-02-28T05:01:06.800Z,79.08
2023-02-28T05:02:08.904Z,79.43
2023-02-28T05:03:11.257Z,79.96
2023-02-28T05:04:13.271Z,79.81
2023-02-28T05:05:15.293Z,79.75
2023-02-28T05:06:20.690Z,79.48
2023-02-28T05:07:22.904Z,79.43
2023-02-28T05:08:24.967Z,79.42
2023-02-28T05:09:28.649Z,79.43
2023-02-28T05:10:32.186Z,79.21
2023-02-28T05:11:35.198Z,79.07
2023-02-28T05:12:37.500Z,79.02
2023-02-28T05:13:39.652Z,79.06
2023-02-28T05:14:42.133Z,79.23
2023-02-28T05:15:44.109Z,79.23
2023-02-28T05:16:46.492Z,79.15
2023-02-28T05:17:48.500Z,79.01
2023-02-28T05:18:50.561Z,78.89
2023-02-28T05:19:52.824Z,78.81
2023-02-28T05:20:55.344Z,79.69
2023-02-28T05:21:57.686Z,79.94
2023-02-28T05:23:00.899Z,79.96
2023-02-28T05:24:06.100Z,79.53
2023-02-28T05:25:20.506Z,79.96
2023-02-28T05:26:23.499Z,79.73
2023-02-28T05:27:25.585Z,79.62
2023-02-28T05:28:27.740Z,80.00
2023-02-28T05:29:29.750Z,79.89
2023-02-28T05:30:33.851Z,79.83
2023-02-28T05:31:36.582Z,80.29
2023-02-28T05:32:39.569Z,80.06
2023-02-28T05:33:41.721Z,79.73
2023-02-28T05:34:44.939Z,79.49
2023-02-28T05:35:46.901Z,79.52
2023-02-28T05:36:49.286Z,79.71
2023-02-28T05:37:51.377Z,79.60
2023-02-28T05:38:53.526Z,79.60
2023-02-28T05:39:56.346Z,79.59
2023-02-28T05:40:58.946Z,79.70
2023-02-28T05:42:00.948Z,79.93
2023-02-28T05:43:03.217Z,80.03
2023-02-28T05:44:05.564Z,80.35
2023-02-28T05:45:09.282Z,80.78
2023-02-28T05:46:12.690Z,81.45
2023-02-28T05:47:16.036Z,81.47
2023-02-28T05:48:18.095Z,81.21
2023-02-28T05:49:20.074Z,80.80
2023-02-28T05:50:23.170Z,80.54
2023-02-28T05:51:25.058Z,80.30
2023-02-28T05:52:28.374Z,80.31
2023-02-28T05:53:31.306Z,80.60
2023-02-28T05:54:33.438Z,80.48
2023-02-28T05:55:35.312Z,80.42
2023-02-28T05:56:37.692Z,80.35
2023-02-28T05:57:39.602Z,80.21
2023-02-28T05:58:41.647Z,80.55
2023-02-28T05:59:43.618Z,80.30
2023-02-28T06:00:46.672Z,80.37
2023-02-28T06:01:48.718Z,80.59
2023-02-28T06:02:50.597Z,80.44
2023-02-28T06:03:52.849Z,80.44
2023-02-28T06:04:54.745Z,80.53
2023-02-28T06:05:56.629Z,80.37
2023-02-28T06:06:58.851Z,80.38
2023-02-28T06:08:00.795Z,80.44
2023-02-28T06:09:05.095Z,80.80
2023-02-28T06:10:09.665Z,80.75
2023-02-28T06:11:12.022Z,80.73
2023-02-28T06:12:14.093Z,80.65
2023-02-28T06:13:16.462Z,80.49
2023-02-28T06:14:20.051Z,80.35
2023-02-28T06:15:22.220Z,80.17
2023-02-28T06:16:25.393Z,79.99
2023-02-28T06:17:27.852Z,80.16
2023-02-28T06:18:29.756Z,80.24
2023-02-28T06:19:32.669Z,80.12
2023-02-28T06:20:34.960Z,80.10
2023-02-28T06:21:38.435Z,80.01
2023-02-28T06:22:40.695Z,80.73
2023-02-28T06:23:42.800Z,80.39
2023-02-28T06:24:44.703Z,80.64
2023-02-28T06:25:47.198Z,81.05
2023-02-28T06:26:49.429Z,80.76
2023-02-28T06:27:51.460Z,80.85
2023-02-28T06:28:54.314Z,80.66
2023-02-28T06:29:56.948Z,80.57
2023-02-28T06:30:59.240Z,80.30
2023-02-28T06:32:02.276Z,80.24
2023-02-28T06:33:06.564Z,80.10
2023-02-28T06:34:08.538Z,80.05
2023-02-28T06:35:10.481Z,79.66
2023-02-28T06:36:15.496Z,79.84
2023-02-28T06:37:18.842Z,80.14
2023-02-28T06:38:20.764Z,80.03
2023-02-28T06:39:22.668Z,79.66
2023-02-28T06:40:24.780Z,79.96
2023-02-28T06:41:29.181Z,79.65
2023-02-28T06:42:31.827Z,79.77
2023-02-28T06:43:37.818Z,79.77
2023-02-28T06:44:39.885Z,79.66
2023-02-28T06:45:44.033Z,79.22
2023-02-28T06:46:47.310Z,79.09
2023-02-28T06:47:49.417Z,79.14
2023-02-28T06:48:51.454Z,79.11
2023-02-28T06:49:54.565Z,78.95
2023-02-28T06:51:13.372Z,79.10
2023-02-28T06:52:15.716Z,79.35
2023-02-28T06:53:19.119Z,79.05
2023-02-28T06:54:21.378Z,79.11
2023-02-28T06:55:23.289Z,79.11
2023-02-28T06:56:25.534Z,79.76
2023-02-28T06:57:34.642Z,79.54
2023-02-28T06:58:37.384Z,79.83
2023-02-28T06:59:39.275Z,80.52
2023-02-28T07:00:42.980Z,80.06
2023-02-28T07:01:44.950Z,79.90
2023-02-28T07:02:47.132Z,79.66
2023-02-28T07:03:49.039Z,79.28
2023-02-28T07:04:51.101Z,78.98
2023-02-28T07:05:54.343Z,78.99
2023-02-28T07:06:56.748Z,79.70
2023-02-28T07:07:58.691Z,79.48
2023-02-28T07:09:01.065Z,79.28
2023-02-28T07:10:04.352Z,79.75
2023-02-28T07:11:07.424Z,79.55
2023-02-28T07:12:09.323Z,79.38
2023-02-28T07:13:11.320Z,79.37
2023-02-28T07:14:13.405Z,79.26
2023-02-28T07:15:15.557Z,79.03
2023-02-28T07:16:19.848Z,78.91
2023-02-28T07:17:22.024Z,79.18
2023-02-28T07:18:24.811Z,79.82
2023-02-28T07:19:26.822Z,80.18
2023-02-28T07:20:29.988Z,79.91
2023-02-28T07:21:32.479Z,79.22
2023-02-28T07:22:35.555Z,79.31
2023-02-28T07:23:39.174Z,79.18
2023-02-28T07:24:41.071Z,79.14
2023-02-28T07:25:43.315Z,78.73
2023-02-28T07:26:46.299Z,78.46
2023-02-28T07:27:48.405Z,78.34
2023-02-28T07:28:50.957Z,78.80
2023-02-28T07:29:54.451Z,78.75
2023-02-28T07:30:56.713Z,78.75
2023-02-28T07:31:58.756Z,79.02
2023-02-28T07:33:00.805Z,79.24
2023-02-28T07:34:03.173Z,79.51
2023-02-28T07:35:06.173Z,80.50
2023-02-28T07:36:12.696Z,80.48
2023-02-28T07:37:15.188Z,80.37
2023-02-28T07:38:17.116Z,80.31
2023-02-28T07:39:19.355Z,79.94
2023-02-28T07:40:21.331Z,79.60
2023-02-28T07:41:23.206Z,80.00
2023-02-28T07:42:25.091Z,81.21
2023-02-28T07:43:27.102Z,81.21
2023-02-28T07:44:29.674Z,80.59
2023-02-28T07:45:32.092Z,80.26
2023-02-28T07:46:34.838Z,79.85
2023-02-28T07:47:38.370Z,79.62
2023-02-28T07:48:40.357Z,79.55
2023-02-28T07:49:42.252Z,79.56
2023-02-28T07:50:44.338Z,80.27
2023-02-28T07:51:46.351Z,80.18
2023-02-28T07:52:48.257Z,81.05
2023-02-28T07:53:50.129Z,81.05
2023-02-28T07:54:52.500Z,81.44
2023-02-28T07:57:08.430Z,81.17
2023-02-28T07:58:10.321Z,80.78
2023-02-28T07:59:12.313Z,80.56
2023-02-28T08:00:15.473Z,80.57
2023-02-28T08:01:17.629Z,80.86
2023-02-28T08:02:19.609Z,81.43
2023-02-28T08:03:22.989Z,81.51
2023-02-28T08:04:25.597Z,81.24
2023-02-28T08:05:27.489Z,81.24
2023-02-28T08:06:29.483Z,81.55
2023-02-28T08:07:31.404Z,81.82
2023-02-28T08:08:34.015Z,81.60
2023-02-28T08:09:36.270Z,82.10
2023-02-28T08:10:38.475Z,82.34
2023-02-28T08:11:40.887Z,81.44
2023-02-28T08:12:42.942Z,81.37
2023-02-28T08:13:46.669Z,81.17
2023-02-28T08:14:48.558Z,80.73
2023-02-28T08:15:50.476Z,80.40
2023-02-28T08:16:52.717Z,79.93
2023-02-28T08:17:54.736Z,79.60
2023-02-28T08:18:56.606Z,79.25
2023-02-28T08:19:58.504Z,79.08
2023-02-28T08:21:10.099Z,79.09
2023-02-28T08:22:12.032Z,78.82
2023-02-28T08:23:14.034Z,78.92
2023-02-28T08:24:16.018Z,79.90
2023-02-28T08:25:19.242Z,79.68
2023-02-28T08:26:21.808Z,79.91
2023-02-28T08:27:23.971Z,80.03
2023-02-28T08:28:27.364Z,79.92
2023-02-28T08:29:29.594Z,79.64
2023-02-28T08:30:32.090Z,79.74
2023-02-28T08:31:34.042Z,79.89
2023-02-28T08:32:36.463Z,79.60
2023-02-28T08:33:39.029Z,79.84
2023-02-28T08:34:41.050Z,79.95
2023-02-28T08:35:42.996Z,79.95
2023-02-28T08:36:45.283Z,79.78
2023-02-28T08:37:51.709Z,79.39
2023-02-28T08:38:53.631Z,79.54
2023-02-28T08:39:56.483Z,79.71
2023-02-28T08:41:01.357Z,79.94
2023-02-28T08:42:08.198Z,80.25
2023-02-28T08:43:08.462Z,79.78
2023-02-28T08:44:10.580Z,79.90
2023-02-28T08:45:13.376Z,79.37
2023-02-28T08:46:15.609Z,79.47
2023-02-28T08:47:18.168Z,79.83
2023-02-28T08:48:20.929Z,79.47
2023-02-28T08:49:23.113Z,78.91
2023-02-28T08:50:26.570Z,78.21
2023-02-28T08:51:29.647Z,77.25
2023-02-28T08:52:32.986Z,76.62
2023-02-28T08:53:36.707Z,76.27
2023-02-28T08:54:38.775Z,76.00
2023-02-28T08:55:40.642Z,75.61
2023-02-28T08:56:42.901Z,76.04
2023-02-28T08:57:44.877Z,75.68
2023-02-28T08:58:49.725Z,75.45
2023-02-28T08:59:52.020Z,74.93
2023-02-28T09:00:55.012Z,74.84
2023-02-28T09:01:58.093Z,74.44
2023-02-28T09:02:59.977Z,74.44
2023-02-28T09:04:02.033Z,74.33
2023-02-28T09:05:05.134Z,73.75
2023-02-28T09:06:08.755Z,73.72
2023-02-28T09:07:10.662Z,74.08
2023-02-28T09:08:12.529Z,74.27
2023-02-28T09:09:16.379Z,73.73
2023-02-28T09:10:19.644Z,73.96
2023-02-28T09:11:21.971Z,74.69
2023-02-28T09:12:25.873Z,74.29
2023-02-28T09:13:28.742Z,74.97
2023-02-28T09:14:31.127Z,74.55
2023-02-28T09:15:33.107Z,74.16
2023-02-28T09:16:36.536Z,73.90
2023-02-28T09:17:38.702Z,73.43
2023-02-28T09:18:40.987Z,73.22
2023-02-28T09:19:43.449Z,72.94
2023-02-28T09:20:46.658Z,72.60
2023-02-28T09:21:48.563Z,72.25
2023-02-28T09:22:50.570Z,72.67
2023-02-28T09:23:52.703Z,72.96
2023-02-28T09:24:54.576Z,72.72
2023-02-28T09:25:57.714Z,72.66
2023-02-28T09:27:05.285Z,72.33
2023-02-28T09:28:06.427Z,72.35
2023-02-28T09:29:08.733Z,72.98
2023-02-28T09:30:12.521Z,73.14
2023-02-28T09:31:23.562Z,73.83
2023-02-28T09:32:25.696Z,73.65
2023-02-28T09:33:27.909Z,73.40
2023-02-28T09:34:29.944Z,73.38
2023-02-28T09:35:31.879Z,73.02
2023-02-28T09:36:44.240Z,73.36
2023-02-28T09:37:38.399Z,73.01
2023-02-28T09:38:40.493Z,73.18
2023-02-28T09:39:42.619Z,73.77
2023-02-28T09:40:51.374Z,74.40
2023-02-28T09:41:55.508Z,74.24
2023-02-28T09:43:00.150Z,73.92
2023-02-28T09:44:04.685Z,73.99
2023-02-28T09:45:16.508Z,73.64
2023-02-28T09:46:34.998Z,73.75
2023-02-28T09:48:51.518Z,73.44
2023-02-28T09:49:55.358Z,73.31
2023-02-28T09:51:07.170Z,73.50
2023-02-28T09:52:22.026Z,74.23
2023-02-28T09:53:36.299Z,73.90
2023-02-28T09:54:39.018Z,74.20
2023-02-28T09:55:47.170Z,73.91
2023-02-28T09:57:17.866Z,73.76
2023-02-28T09:58:21.623Z,73.44
2023-02-28T09:59:32.985Z,73.46
2023-02-28T10:00:38.883Z,73.38
2023-02-28T10:02:03.392Z,73.03
2023-02-28T10:03:21.089Z,73.07
2023-02-28T10:04:39.127Z,74.79
2023-02-28T10:05:51.007Z,74.45
2023-02-28T10:06:53.696Z,74.26
2023-02-28T10:08:27.053Z,74.04
2023-02-28T10:09:32.899Z,73.94
2023-02-28T10:10:44.304Z,73.67
2023-02-28T10:11:50.918Z,75.14
2023-02-28T10:12:56.324Z,75.04
2023-02-28T10:14:04.981Z,75.33
2023-02-28T10:15:10.867Z,75.49
2023-02-28T10:16:26.232Z,75.51
2023-02-28T10:17:44.271Z,75.66
2023-02-28T10:18:51.071Z,75.21
2023-02-28T10:21:23.370Z,75.20
2023-02-28T10:22:32.134Z,75.55
2023-02-28T10:23:38.467Z,75.51
2023-02-28T10:24:47.088Z,74.69
2023-02-28T10:25:52.777Z,74.90
2023-02-28T10:26:58.583Z,74.36
2023-02-28T10:28:15.308Z,74.73
2023-02-28T10:29:17.489Z,74.29
2023-02-28T10:30:20.887Z,73.96
2023-02-28T10:31:24.745Z,74.20
2023-02-28T10:32:30.693Z,74.04
2023-02-28T10:33:36.000Z,74.48
2023-02-28T10:34:38.164Z,74.13
2023-02-28T10:35:40.058Z,73.45
2023-02-28T10:36:43.671Z,72.92
2023-02-28T10:37:51.223Z,73.24
2023-02-28T10:38:53.323Z,72.70
2023-02-28T10:39:55.564Z,72.42
2023-02-28T10:41:12.569Z,72.09
2023-02-28T10:42:24.007Z,71.63
2023-02-28T10:43:25.874Z,70.95
2023-02-28T10:44:27.991Z,70.59
2023-02-28T10:45:32.589Z,70.78
2023-02-28T10:46:35.985Z,70.72
2023-02-28T10:47:51.047Z,71.37
2023-02-28T10:49:03.278Z,71.21
2023-02-28T10:50:07.406Z,70.17
2023-02-28T10:51:13.102Z,70.03
2023-02-28T10:52:19.404Z,69.57
2023-02-28T10:53:30.795Z,69.09
2023-02-28T10:54:34.146Z,68.93
2023-02-28T10:55:37.764Z,68.98
2023-02-28T10:56:40.017Z,70.37
2023-02-28T10:57:41.927Z,70.04
2023-02-28T10:59:06.166Z,70.18
2023-02-28T11:01:37.043Z,68.79
2023-02-28T11:02:39.752Z,68.34
2023-02-28T11:03:41.903Z,68.10
2023-02-28T11:04:43.825Z,68.73
2023-02-28T11:05:47.165Z,68.78
2023-02-28T11:07:08.263Z,69.05
2023-02-28T11:08:16.409Z,69.95
2023-02-28T11:09:25.399Z,70.12
2023-02-28T11:10:31.543Z,69.70
2023-02-28T11:11:45.879Z,69.79
2023-02-28T11:12:53.017Z,68.94
2023-02-28T11:13:56.132Z,68.07
2023-02-28T11:16:16.844Z,68.00
2023-02-28T11:17:28.494Z,67.92
2023-02-28T11:18:50.398Z,68.18
2023-02-28T11:19:56.174Z,68.25
2023-02-28T11:21:02.074Z,67.92
2023-02-28T11:22:05.172Z,68.05
2023-02-28T11:23:11.560Z,68.29
2023-02-28T11:24:32.555Z,67.70
2023-02-28T11:25:38.068Z,67.38
2023-02-28T11:26:43.841Z,68.04
2023-02-28T11:27:49.166Z,68.32
2023-02-28T11:28:54.919Z,68.69
2023-02-28T11:29:58.753Z,69.31
2023-02-28T11:31:17.918Z,69.49
2023-02-28T11:32:24.763Z,68.96
2023-02-28T11:33:30.048Z,69.67
2023-02-28T11:34:32.744Z,69.01
2023-02-28T11:35:38.477Z,68.64
2023-02-28T11:36:40.855Z,69.73
2023-02-28T11:37:43.368Z,70.21
2023-02-28T11:38:45.506Z,69.63
2023-02-28T11:39:47.847Z,69.49
2023-02-28T11:40:59.623Z,69.28
2023-02-28T11:42:20.676Z,69.13
2023-02-28T11:45:04.819Z,70.79
2023-02-28T11:46:39.166Z,70.16
2023-02-28T11:48:05.698Z,69.76
2023-02-28T11:49:34.584Z,70.23
2023-02-28T11:50:40.437Z,69.34
2023-02-28T11:52:01.500Z,69.26
2023-02-28T11:53:16.233Z,68.50
2023-02-28T11:54:37.557Z,67.98
2023-02-28T11:55:43.314Z,68.59
2023-02-28T11:56:54.407Z,68.73
2023-02-28T11:58:12.368Z,68.74
2023-02-28T11:59:25.437Z,69.10
2023-02-28T12:00:40.537Z,69.08
2023-02-28T12:02:01.459Z,70.30
2023-02-28T12:03:07.401Z,70.97
2023-02-28T12:04:19.261Z,70.44
2023-02-28T12:05:41.830Z,70.26
2023-02-28T12:06:59.895Z,70.31
2023-02-28T12:08:22.621Z,70.06
2023-02-28T12:09:34.617Z,70.41
2023-02-28T12:10:56.936Z,70.46
2023-02-28T12:12:21.751Z,70.41
2023-02-28T12:13:28.378Z,70.27
2023-02-28T12:14:51.076Z,70.15
2023-02-28T12:16:21.819Z,70.28
2023-02-28T12:17:45.563Z,69.68
2023-02-28T12:19:23.469Z,69.32
2023-02-28T12:20:50.826Z,69.84
2023-02-28T12:22:14.382Z,70.40
2023-02-28T12:23:36.829Z,70.44
2023-02-28T12:24:54.409Z,70.32
2023-02-28T12:26:09.428Z,70.07
2023-02-28T12:27:15.110Z,70.78
2023-02-28T12:28:20.992Z,71.20
2023-02-28T12:29:33.351Z,71.09
2023-02-28T12:30:39.208Z,70.69
2023-02-28T12:32:06.188Z,71.51
2023-02-28T12:33:12.105Z,71.47
2023-02-28T12:34:17.991Z,70.75
2023-02-28T12:35:23.794Z,70.33
2023-02-28T12:36:26.420Z,71.20
2023-02-28T12:37:43.976Z,70.75
2023-02-28T12:38:50.250Z,70.36
2023-02-28T12:39:56.038Z,70.13
2023-02-28T12:41:05.024Z,69.88
2023-02-28T12:42:13.904Z,69.76
2023-02-28T12:43:19.024Z,69.64
2023-02-28T12:44:27.959Z,69.76
2023-02-28T12:45:52.191Z,69.77
2023-02-28T12:47:01.506Z,69.81
2023-02-28T12:48:06.672Z,69.73
2023-02-28T12:49:12.337Z,70.35
2023-02-28T12:50:15.692Z,70.91
2023-02-28T12:51:19.255Z,71.01
2023-02-28T12:52:40.473Z,71.31
2023-02-28T12:53:52.249Z,71.05
2023-02-28T12:54:58.049Z,71.02
2023-02-28T12:56:09.681Z,70.91
2023-02-28T12:57:33.742Z,70.23
2023-02-28T12:58:45.881Z,69.88
2023-02-28T12:59:51.554Z,69.75
2023-02-28T13:01:06.226Z,69.35
2023-02-28T13:02:19.688Z,69.27
2023-02-28T13:03:31.236Z,69.40
2023-02-28T13:04:40.944Z,69.65
2023-02-28T13:06:15.753Z,70.10
2023-02-28T13:07:23.973Z,69.48
2023-02-28T13:09:03.452Z,68.71
2023-02-28T13:10:08.297Z,69.21
2023-02-28T13:11:30.546Z,69.54
2023-02-28T13:12:33.113Z,69.32
2023-02-28T13:13:35.216Z,68.80
2023-02-28T13:14:38.499Z,68.37
2023-02-28T13:15:40.534Z,68.22
2023-02-28T13:16:55.587Z,68.72
2023-02-28T13:17:59.759Z,68.59
2023-02-28T13:19:12.151Z,68.41
2023-02-28T13:20:22.024Z,68.13
2023-02-28T13:21:27.741Z,68.61
2023-02-28T13:22:39.520Z,68.80
2023-02-28T13:23:54.898Z,68.58
2023-02-28T13:24:57.560Z,68.24
2023-02-28T13:26:01.314Z,68.44
2023-02-28T13:27:08.652Z,68.40
2023-02-28T13:28:13.538Z,68.45
2023-02-28T13:29:19.236Z,68.34
2023-02-28T13:30:54.358Z,68.30
2023-02-28T13:32:12.356Z,67.80
2023-02-28T13:33:32.183Z,67.70
2023-02-28T13:34:41.145Z,67.79
2023-02-28T13:35:44.929Z,67.53
2023-02-28T13:36:47.784Z,67.48
2023-02-28T13:37:50.621Z,67.42
2023-02-28T13:39:02.026Z,67.46
2023-02-28T13:41:42.622Z,67.69
2023-02-28T13:42:48.498Z,67.65
2023-02-28T13:44:09.329Z,67.76
2023-02-28T13:45:15.105Z,67.84
2023-02-28T13:46:17.746Z,67.71
2023-02-28T13:47:23.336Z,68.12
2023-02-28T13:48:29.055Z,68.75
2023-02-28T13:49:31.942Z,68.32
2023-02-28T13:50:38.118Z,68.23
2023-02-28T13:51:43.905Z,67.72
2023-02-28T13:53:06.276Z,67.49
2023-02-28T13:55:40.033Z,68.26
2023-02-28T13:57:59.340Z,67.56
2023-02-28T13:59:19.942Z,67.48
2023-02-28T14:00:37.530Z,67.33
2023-02-28T14:01:49.188Z,67.14
2023-02-28T14:03:14.513Z,66.93
2023-02-28T14:04:37.574Z,66.82
2023-02-28T14:05:40.534Z,66.39
2023-02-28T14:06:50.124Z,66.45
2023-02-28T14:09:13.443Z,66.82
2023-02-28T14:10:38.150Z,67.01
2023-02-28T14:11:42.837Z,67.22
2023-02-28T14:13:01.193Z,66.89
2023-02-28T14:14:05.014Z,66.77
2023-02-28T14:15:28.260Z,66.70
2023-02-28T14:16:48.016Z,66.74
2023-02-28T14:17:55.308Z,66.91
2023-02-28T14:19:03.772Z,66.98
2023-02-28T14:20:09.983Z,66.81
2023-02-28T14:21:15.885Z,66.87
2023-02-28T14:22:44.896Z,66.76
2023-02-28T14:24:08.416Z,67.19
2023-02-28T14:25:27.071Z,67.01
2023-02-28T14:26:35.864Z,66.83
2023-02-28T14:27:50.890Z,66.61
2023-02-28T14:29:16.547Z,66.61
2023-02-28T14:30:40.224Z,66.60
2023-02-28T14:31:51.838Z,66.76
2023-02-28T14:33:10.021Z,66.50
2023-02-28T14:35:45.283Z,67.56
2023-02-28T14:36:48.768Z,67.56
2023-02-28T14:37:51.493Z,67.44
2023-02-28T14:38:57.130Z,67.26
2023-02-28T14:40:02.304Z,67.10